sensor_id;sensor_type;location;lat;lon;timestamp;temperature;humidity
71754;DHT22;59593;51.716;7.016;2022-11-11T00:00:31;10.20;99.90
71754;DHT22;59593;51.716;7.016;2022-11-11T00:02:57;10.30;99.90
71754;DHT22;59593;51.716;7.016;2022-11-11T00:05:24;10.30;99.90
71754;DHT22;59593;51.716;7.016;2022-11-11T00:07:54;10.20;99.90
71754;DHT22;59593;51.716;7.016;2022-11-11T00:10:28;10.20;99.90
71754;DHT22;59593;51.716;7.016;2022-11-11T00:12:58;10.20;99.90
71754;DHT22;59593;51.716;7.016;2022-11-11T00:15:24;10.10;99.90
71754;DHT22;59593;51.716;7.016;2022-11-11T00:17:49;10.20;99.90
71754;DHT22;59593;51.716;7.016;2022-11-11T00:20:35;10.00;99.90
71754;DHT22;59593;51.716;7.016;2022-11-11T00:23:24;10.00;99.90
71754;DHT22;59593;51.716;7.016;2022-11-11T00:26:11;9.90;99.90
71754;DHT22;59593;51.716;7.016;2022-11-11T00:28:37;10.10;99.90
71754;DHT22;59593;51.716;7.016;2022-11-11T00:31:04;10.10;99.90
71754;DHT22;59593;51.716;7.016;2022-11-11T00:33:31;10.10;99.90
71754;DHT22;59593;51.716;7.016;2022-11-11T00:35:56;10.00;99.90
71754;DHT22;59593;51.716;7.016;2022-11-11T00:38:22;10.00;99.90
71754;DHT22;59593;51.716;7.016;2022-11-11T00:41:06;10.00;99.90
71754;DHT22;59593;51.716;7.016;2022-11-11T00:43:32;10.00;99.90
71754;DHT22;59593;51.716;7.016;2022-11-11T00:45:58;10.00;99.90
71754;DHT22;59593;51.716;7.016;2022-11-11T00:48:43;10.00;99.90
71754;DHT22;59593;51.716;7.016;2022-11-11T00:51:27;10.10;99.90
71754;DHT22;59593;51.716;7.016;2022-11-11T00:53:53;10.10;99.90
71754;DHT22;59593;51.716;7.016;2022-11-11T00:56:20;10.00;99.90
71754;DHT22;59593;51.716;7.016;2022-11-11T00:58:45;9.90;99.90
71754;DHT22;59593;51.716;7.016;2022-11-11T01:01:11;9.90;99.90
71754;DHT22;59593;51.716;7.016;2022-11-11T01:03:37;9.90;99.90
71754;DHT22;59593;51.716;7.016;2022-11-11T01:06:03;9.90;99.90
71754;DHT22;59593;51.716;7.016;2022-11-11T01:08:30;9.90;99.90
71754;DHT22;59593;51.716;7.016;2022-11-11T01:10:56;9.90;99.90
71754;DHT22;59593;51.716;7.016;2022-11-11T01:13:24;9.90;99.90
71754;DHT22;59593;51.716;7.016;2022-11-11T01:15:52;9.90;99.90
71754;DHT22;59593;51.716;7.016;2022-11-11T01:18:23;9.80;99.90
71754;DHT22;59593;51.716;7.016;2022-11-11T01:21:04;9.90;99.90
71754;DHT22;59593;51.716;7.016;2022-11-11T01:23:31;9.80;99.90
71754;DHT22;59593;51.716;7.016;2022-11-11T01:26:01;9.80;99.90
71754;DHT22;59593;51.716;7.016;2022-11-11T01:28:28;9.80;99.90
71754;DHT22;59593;51.716;7.016;2022-11-11T01:30:53;9.70;99.90
71754;DHT22;59593;51.716;7.016;2022-11-11T01:33:24;9.70;99.90
71754;DHT22;59593;51.716;7.016;2022-11-11T01:35:49;9.70;99.90
71754;DHT22;59593;51.716;7.016;2022-11-11T01:38:15;9.70;99.90
71754;DHT22;59593;51.716;7.016;2022-11-11T01:40:43;9.70;99.90
71754;DHT22;59593;51.716;7.016;2022-11-11T01:43:16;9.80;99.90
71754;DHT22;59593;51.716;7.016;2022-11-11T01:45:57;9.80;99.90
71754;DHT22;59593;51.716;7.016;2022-11-11T01:48:34;9.60;99.90
71754;DHT22;59593;51.716;7.016;2022-11-11T01:51:44;9.50;99.90
71754;DHT22;59593;51.716;7.016;2022-11-11T01:57:02;9.40;99.90
71754;DHT22;59593;51.716;7.016;2022-11-11T01:59:29;9.30;99.90
71754;DHT22;59593;51.716;7.016;2022-11-11T02:01:56;9.30;99.90
71754;DHT22;59593;51.716;7.016;2022-11-11T02:04:24;9.40;99.90
71754;DHT22;59593;51.716;7.016;2022-11-11T02:07:09;9.30;99.90
71754;DHT22;59593;51.716;7.016;2022-11-11T02:09:38;9.40;99.90
71754;DHT22;59593;51.716;7.016;2022-11-11T02:12:08;9.40;99.90
71754;DHT22;59593;51.716;7.016;2022-11-11T02:14:58;9.30;99.90
71754;DHT22;59593;51.716;7.016;2022-11-11T02:17:27;9.20;99.90
71754;DHT22;59593;51.716;7.016;2022-11-11T02:19:56;9.30;99.90
71754;DHT22;59593;51.716;7.016;2022-11-11T02:22:56;9.30;99.90
71754;DHT22;59593;51.716;7.016;2022-11-11T02:25:28;9.20;99.90
71754;DHT22;59593;51.716;7.016;2022-11-11T02:27:58;9.20;99.90
71754;DHT22;59593;51.716;7.016;2022-11-11T02:30:25;9.20;99.90
71754;DHT22;59593;51.716;7.016;2022-11-11T02:32:53;9.30;99.90
71754;DHT22;59593;51.716;7.016;2022-11-11T02:35:28;9.30;99.90
71754;DHT22;59593;51.716;7.016;2022-11-11T02:37:55;9.20;99.90
71754;DHT22;59593;51.716;7.016;2022-11-11T02:40:32;9.20;99.90
71754;DHT22;59593;51.716;7.016;2022-11-11T02:42:58;9.20;99.90
71754;DHT22;59593;51.716;7.016;2022-11-11T02:45:23;9.20;99.90
71754;DHT22;59593;51.716;7.016;2022-11-11T02:47:49;9.20;99.90
71754;DHT22;59593;51.716;7.016;2022-11-11T02:50:15;9.30;99.90
71754;DHT22;59593;51.716;7.016;2022-11-11T02:52:40;9.20;99.90
71754;DHT22;59593;51.716;7.016;2022-11-11T02:55:06;9.20;99.90
71754;DHT22;59593;51.716;7.016;2022-11-11T02:57:33;9.40;99.90
71754;DHT22;59593;51.716;7.016;2022-11-11T02:59:59;9.30;99.90
71754;DHT22;59593;51.716;7.016;2022-11-11T03:02:26;9.50;99.90
71754;DHT22;59593;51.716;7.016;2022-11-11T03:04:56;9.40;99.90
71754;DHT22;59593;51.716;7.016;2022-11-11T03:07:22;9.30;99.90
71754;DHT22;59593;51.716;7.016;2022-11-11T03:09:49;9.20;99.90
71754;DHT22;59593;51.716;7.016;2022-11-11T03:12:15;9.30;99.90
71754;DHT22;59593;51.716;7.016;2022-11-11T03:14:41;9.30;99.90
71754;DHT22;59593;51.716;7.016;2022-11-11T03:17:07;9.40;99.90
71754;DHT22;59593;51.716;7.016;2022-11-11T03:19:51;9.40;99.90
71754;DHT22;59593;51.716;7.016;2022-11-11T03:22:17;9.40;99.90
71754;DHT22;59593;51.716;7.016;2022-11-11T03:24:42;9.50;99.90
71754;DHT22;59593;51.716;7.016;2022-11-11T03:27:26;9.40;99.90
71754;DHT22;59593;51.716;7.016;2022-11-11T03:29:52;9.40;99.90
71754;DHT22;59593;51.716;7.016;2022-11-11T03:32:17;9.30;99.90
71754;DHT22;59593;51.716;7.016;2022-11-11T03:34:43;9.20;99.90
71754;DHT22;59593;51.716;7.016;2022-11-11T03:37:10;9.10;99.90
71754;DHT22;59593;51.716;7.016;2022-11-11T03:39:54;9.00;99.90
71754;DHT22;59593;51.716;7.016;2022-11-11T03:42:20;8.90;99.90
71754;DHT22;59593;51.716;7.016;2022-11-11T03:44:45;8.80;99.90
71754;DHT22;59593;51.716;7.016;2022-11-11T03:47:11;8.80;99.90
71754;DHT22;59593;51.716;7.016;2022-11-11T03:49:37;8.90;99.90
71754;DHT22;59593;51.716;7.016;2022-11-11T03:52:02;8.80;99.90
71754;DHT22;59593;51.716;7.016;2022-11-11T03:54:28;8.80;99.90
71754;DHT22;59593;51.716;7.016;2022-11-11T03:56:54;8.90;99.90
71754;DHT22;59593;51.716;7.016;2022-11-11T03:59:39;9.00;99.90
71754;DHT22;59593;51.716;7.016;2022-11-11T04:02:12;9.00;99.90
71754;DHT22;59593;51.716;7.016;2022-11-11T04:04:56;9.10;99.90
71754;DHT22;59593;51.716;7.016;2022-11-11T04:07:40;9.10;99.90
71754;DHT22;59593;51.716;7.016;2022-11-11T04:10:25;9.10;99.90
71754;DHT22;59593;51.716;7.016;2022-11-11T04:12:52;8.90;99.90
71754;DHT22;59593;51.716;7.016;2022-11-11T04:15:37;8.90;99.90
71754;DHT22;59593;51.716;7.016;2022-11-11T04:18:21;9.00;99.90
71754;DHT22;59593;51.716;7.016;2022-11-11T04:21:07;8.80;99.90
71754;DHT22;59593;51.716;7.016;2022-11-11T04:23:51;8.70;99.90
71754;DHT22;59593;51.716;7.016;2022-11-11T04:26:17;8.70;99.90
71754;DHT22;59593;51.716;7.016;2022-11-11T04:28:42;8.70;99.90
71754;DHT22;59593;51.716;7.016;2022-11-11T04:31:26;8.80;99.90
71754;DHT22;59593;51.716;7.016;2022-11-11T04:33:52;8.80;99.90
71754;DHT22;59593;51.716;7.016;2022-11-11T04:36:18;9.00;99.90
71754;DHT22;59593;51.716;7.016;2022-11-11T04:38:43;8.90;99.90
71754;DHT22;59593;51.716;7.016;2022-11-11T04:41:38;8.80;99.90
71754;DHT22;59593;51.716;7.016;2022-11-11T04:44:04;8.80;99.90
71754;DHT22;59593;51.716;7.016;2022-11-11T04:46:48;8.90;99.90
71754;DHT22;59593;51.716;7.016;2022-11-11T04:49:14;8.90;99.90
71754;DHT22;59593;51.716;7.016;2022-11-11T04:51:39;8.90;99.90
71754;DHT22;59593;51.716;7.016;2022-11-11T04:54:23;8.80;99.90
71754;DHT22;59593;51.716;7.016;2022-11-11T04:56:49;8.80;99.90
71754;DHT22;59593;51.716;7.016;2022-11-11T04:59:15;8.80;99.90
71754;DHT22;59593;51.716;7.016;2022-11-11T05:01:41;8.70;99.90
71754;DHT22;59593;51.716;7.016;2022-11-11T05:04:25;8.60;99.90
71754;DHT22;59593;51.716;7.016;2022-11-11T05:06:51;8.70;99.90
71754;DHT22;59593;51.716;7.016;2022-11-11T05:09:35;8.60;99.90
71754;DHT22;59593;51.716;7.016;2022-11-11T05:12:01;8.50;99.90
71754;DHT22;59593;51.716;7.016;2022-11-11T05:14:26;8.50;99.90
71754;DHT22;59593;51.716;7.016;2022-11-11T05:17:11;8.60;99.90
71754;DHT22;59593;51.716;7.016;2022-11-11T05:19:55;8.70;99.90
71754;DHT22;59593;51.716;7.016;2022-11-11T05:22:40;8.60;99.90
71754;DHT22;59593;51.716;7.016;2022-11-11T05:25:07;8.60;99.90
71754;DHT22;59593;51.716;7.016;2022-11-11T05:27:55;8.60;99.90
71754;DHT22;59593;51.716;7.016;2022-11-11T05:30:23;8.50;99.90
71754;DHT22;59593;51.716;7.016;2022-11-11T05:32:49;8.60;99.90
71754;DHT22;59593;51.716;7.016;2022-11-11T05:35:15;8.60;99.90
71754;DHT22;59593;51.716;7.016;2022-11-11T05:37:41;8.60;99.90
71754;DHT22;59593;51.716;7.016;2022-11-11T05:40:08;8.60;99.90
71754;DHT22;59593;51.716;7.016;2022-11-11T05:42:34;8.60;99.90
71754;DHT22;59593;51.716;7.016;2022-11-11T05:45:00;8.50;99.90
71754;DHT22;59593;51.716;7.016;2022-11-11T05:47:25;8.60;99.90
71754;DHT22;59593;51.716;7.016;2022-11-11T05:49:51;8.50;99.90
71754;DHT22;59593;51.716;7.016;2022-11-11T05:52:17;8.50;99.90
71754;DHT22;59593;51.716;7.016;2022-11-11T05:54:43;8.40;99.90
71754;DHT22;59593;51.716;7.016;2022-11-11T05:57:09;8.50;99.90
71754;DHT22;59593;51.716;7.016;2022-11-11T05:59:36;8.40;99.90
71754;DHT22;59593;51.716;7.016;2022-11-11T06:02:01;8.40;99.90
71754;DHT22;59593;51.716;7.016;2022-11-11T06:04:27;8.50;99.90
71754;DHT22;59593;51.716;7.016;2022-11-11T06:06:53;8.40;99.90
71754;DHT22;59593;51.716;7.016;2022-11-11T06:09:19;8.40;99.90
71754;DHT22;59593;51.716;7.016;2022-11-11T06:11:45;8.50;99.90
71754;DHT22;59593;51.716;7.016;2022-11-11T06:14:10;8.40;99.90
71754;DHT22;59593;51.716;7.016;2022-11-11T06:16:36;8.40;99.90
71754;DHT22;59593;51.716;7.016;2022-11-11T06:19:01;8.30;99.90
71754;DHT22;59593;51.716;7.016;2022-11-11T06:21:29;8.30;99.90
71754;DHT22;59593;51.716;7.016;2022-11-11T06:23:56;8.50;99.90
71754;DHT22;59593;51.716;7.016;2022-11-11T06:26:22;8.50;99.90
71754;DHT22;59593;51.716;7.016;2022-11-11T06:31:16;8.60;99.90
71754;DHT22;59593;51.716;7.016;2022-11-11T06:33:42;8.50;99.90
71754;DHT22;59593;51.716;7.016;2022-11-11T06:36:10;8.40;99.90
71754;DHT22;59593;51.716;7.016;2022-11-11T06:38:38;8.40;99.90
71754;DHT22;59593;51.716;7.016;2022-11-11T06:41:04;8.40;99.90
71754;DHT22;59593;51.716;7.016;2022-11-11T06:43:30;8.50;99.90
71754;DHT22;59593;51.716;7.016;2022-11-11T06:45:56;8.50;99.90
71754;DHT22;59593;51.716;7.016;2022-11-11T06:48:23;8.50;99.90
71754;DHT22;59593;51.716;7.016;2022-11-11T06:50:49;8.60;99.90
71754;DHT22;59593;51.716;7.016;2022-11-11T06:53:16;8.50;99.90
71754;DHT22;59593;51.716;7.016;2022-11-11T06:55:42;8.40;99.90
71754;DHT22;59593;51.716;7.016;2022-11-11T06:58:13;8.60;99.90
71754;DHT22;59593;51.716;7.016;2022-11-11T07:00:40;8.50;99.90
71754;DHT22;59593;51.716;7.016;2022-11-11T07:03:08;8.50;99.90
71754;DHT22;59593;51.716;7.016;2022-11-11T07:05:34;8.70;99.90
71754;DHT22;59593;51.716;7.016;2022-11-11T07:08:04;8.70;99.90
71754;DHT22;59593;51.716;7.016;2022-11-11T07:10:31;8.50;99.90
71754;DHT22;59593;51.716;7.016;2022-11-11T07:12:57;8.70;99.90
71754;DHT22;59593;51.716;7.016;2022-11-11T07:15:23;8.60;99.90
71754;DHT22;59593;51.716;7.016;2022-11-11T07:17:48;8.70;99.90
71754;DHT22;59593;51.716;7.016;2022-11-11T07:20:17;8.70;99.90
71754;DHT22;59593;51.716;7.016;2022-11-11T07:22:43;8.80;99.90
71754;DHT22;59593;51.716;7.016;2022-11-11T07:25:08;8.90;99.90
71754;DHT22;59593;51.716;7.016;2022-11-11T07:27:38;8.80;99.90
71754;DHT22;59593;51.716;7.016;2022-11-11T07:30:08;8.80;99.90
71754;DHT22;59593;51.716;7.016;2022-11-11T07:32:34;8.80;99.90
71754;DHT22;59593;51.716;7.016;2022-11-11T07:35:00;8.90;99.90
71754;DHT22;59593;51.716;7.016;2022-11-11T07:37:26;9.00;99.90
71754;DHT22;59593;51.716;7.016;2022-11-11T07:39:52;9.00;99.90
71754;DHT22;59593;51.716;7.016;2022-11-11T07:42:19;9.00;99.90
71754;DHT22;59593;51.716;7.016;2022-11-11T07:44:44;9.00;99.90
71754;DHT22;59593;51.716;7.016;2022-11-11T07:47:10;9.10;99.90
71754;DHT22;59593;51.716;7.016;2022-11-11T07:49:36;9.00;99.90
71754;DHT22;59593;51.716;7.016;2022-11-11T07:52:02;9.00;99.90
71754;DHT22;59593;51.716;7.016;2022-11-11T07:54:27;9.00;99.90
71754;DHT22;59593;51.716;7.016;2022-11-11T07:56:53;9.00;99.90
71754;DHT22;59593;51.716;7.016;2022-11-11T07:59:22;9.00;99.90
71754;DHT22;59593;51.716;7.016;2022-11-11T08:01:48;9.10;99.90
71754;DHT22;59593;51.716;7.016;2022-11-11T08:04:13;9.20;99.90
71754;DHT22;59593;51.716;7.016;2022-11-11T08:06:39;9.30;99.90
71754;DHT22;59593;51.716;7.016;2022-11-11T08:09:05;9.30;99.90
71754;DHT22;59593;51.716;7.016;2022-11-11T08:11:30;9.30;99.90
71754;DHT22;59593;51.716;7.016;2022-11-11T08:14:14;9.40;99.90
71754;DHT22;59593;51.716;7.016;2022-11-11T08:16:40;9.40;99.90
71754;DHT22;59593;51.716;7.016;2022-11-11T08:19:05;9.40;99.90
71754;DHT22;59593;51.716;7.016;2022-11-11T08:21:31;9.50;99.90
71754;DHT22;59593;51.716;7.016;2022-11-11T08:23:57;9.60;99.90
71754;DHT22;59593;51.716;7.016;2022-11-11T08:26:23;9.60;99.90
71754;DHT22;59593;51.716;7.016;2022-11-11T08:28:50;9.80;99.90
71754;DHT22;59593;51.716;7.016;2022-11-11T08:31:16;9.90;99.90
71754;DHT22;59593;51.716;7.016;2022-11-11T08:33:42;9.90;99.90
71754;DHT22;59593;51.716;7.016;2022-11-11T08:36:07;10.00;99.90
71754;DHT22;59593;51.716;7.016;2022-11-11T08:38:36;10.10;99.90
71754;DHT22;59593;51.716;7.016;2022-11-11T08:41:03;10.10;99.90
71754;DHT22;59593;51.716;7.016;2022-11-11T08:43:29;10.00;99.90
71754;DHT22;59593;51.716;7.016;2022-11-11T08:45:57;10.10;99.90
71754;DHT22;59593;51.716;7.016;2022-11-11T08:48:23;10.20;99.90
71754;DHT22;59593;51.716;7.016;2022-11-11T08:50:50;10.30;99.90
71754;DHT22;59593;51.716;7.016;2022-11-11T08:53:16;10.40;99.90
71754;DHT22;59593;51.716;7.016;2022-11-11T08:55:42;10.50;99.90
71754;DHT22;59593;51.716;7.016;2022-11-11T08:58:09;10.60;99.90
71754;DHT22;59593;51.716;7.016;2022-11-11T09:00:35;10.60;99.90
71754;DHT22;59593;51.716;7.016;2022-11-11T09:03:05;10.60;99.90
71754;DHT22;59593;51.716;7.016;2022-11-11T09:05:32;10.70;99.90
71754;DHT22;59593;51.716;7.016;2022-11-11T09:08:00;10.80;99.90
71754;DHT22;59593;51.716;7.016;2022-11-11T09:10:26;10.90;99.90
71754;DHT22;59593;51.716;7.016;2022-11-11T09:12:56;10.90;99.90
71754;DHT22;59593;51.716;7.016;2022-11-11T09:15:22;11.00;99.90
71754;DHT22;59593;51.716;7.016;2022-11-11T09:17:47;11.00;99.90
71754;DHT22;59593;51.716;7.016;2022-11-11T09:20:13;11.00;99.90
71754;DHT22;59593;51.716;7.016;2022-11-11T09:22:43;11.10;99.90
71754;DHT22;59593;51.716;7.016;2022-11-11T09:25:09;11.20;99.90
71754;DHT22;59593;51.716;7.016;2022-11-11T09:27:34;11.10;99.90
71754;DHT22;59593;51.716;7.016;2022-11-11T09:30:00;11.30;99.90
71754;DHT22;59593;51.716;7.016;2022-11-11T09:32:26;11.40;99.90
71754;DHT22;59593;51.716;7.016;2022-11-11T09:34:51;11.40;99.90
71754;DHT22;59593;51.716;7.016;2022-11-11T09:37:20;11.60;99.90
71754;DHT22;59593;51.716;7.016;2022-11-11T09:39:45;11.60;99.90
71754;DHT22;59593;51.716;7.016;2022-11-11T09:45:11;11.60;99.90
71754;DHT22;59593;51.716;7.016;2022-11-11T09:47:44;11.70;99.90
71754;DHT22;59593;51.716;7.016;2022-11-11T09:50:27;11.80;99.90
71754;DHT22;59593;51.716;7.016;2022-11-11T09:55:42;12.10;99.90
71754;DHT22;59593;51.716;7.016;2022-11-11T09:58:21;12.10;99.90
71754;DHT22;59593;51.716;7.016;2022-11-11T10:00:59;12.20;99.90
71754;DHT22;59593;51.716;7.016;2022-11-11T10:03:26;12.30;99.90
71754;DHT22;59593;51.716;7.016;2022-11-11T10:06:02;12.30;99.90
71754;DHT22;59593;51.716;7.016;2022-11-11T10:08:34;12.30;99.90
71754;DHT22;59593;51.716;7.016;2022-11-11T10:11:04;12.30;99.90
71754;DHT22;59593;51.716;7.016;2022-11-11T10:13:37;12.40;99.90
71754;DHT22;59593;51.716;7.016;2022-11-11T10:16:21;12.50;99.90
71754;DHT22;59593;51.716;7.016;2022-11-11T10:19:04;12.60;99.90
71754;DHT22;59593;51.716;7.016;2022-11-11T10:24:12;12.80;99.90
71754;DHT22;59593;51.716;7.016;2022-11-11T10:26:42;12.80;99.90
71754;DHT22;59593;51.716;7.016;2022-11-11T10:29:20;13.00;99.90
71754;DHT22;59593;51.716;7.016;2022-11-11T10:32:00;13.10;99.90
71754;DHT22;59593;51.716;7.016;2022-11-11T10:34:32;13.30;99.90
71754;DHT22;59593;51.716;7.016;2022-11-11T10:36:58;13.50;99.90
71754;DHT22;59593;51.716;7.016;2022-11-11T10:39:57;13.70;99.90
71754;DHT22;59593;51.716;7.016;2022-11-11T10:42:24;13.90;99.90
71754;DHT22;59593;51.716;7.016;2022-11-11T10:44:55;14.20;99.90
71754;DHT22;59593;51.716;7.016;2022-11-11T10:59:00;16.30;99.90
71754;DHT22;59593;51.716;7.016;2022-11-11T11:01:38;16.20;99.90
71754;DHT22;59593;51.716;7.016;2022-11-11T11:04:09;16.20;99.90
71754;DHT22;59593;51.716;7.016;2022-11-11T11:06:39;16.00;99.90
71754;DHT22;59593;51.716;7.016;2022-11-11T11:11:53;15.70;99.90
71754;DHT22;59593;51.716;7.016;2022-11-11T11:14:27;15.60;99.90
71754;DHT22;59593;51.716;7.016;2022-11-11T11:16:57;16.00;99.90
71754;DHT22;59593;51.716;7.016;2022-11-11T11:19:25;16.50;99.90
71754;DHT22;59593;51.716;7.016;2022-11-11T11:21:57;16.50;99.90
71754;DHT22;59593;51.716;7.016;2022-11-11T11:24:32;16.60;99.90
71754;DHT22;59593;51.716;7.016;2022-11-11T11:27:04;16.30;99.90
71754;DHT22;59593;51.716;7.016;2022-11-11T11:29:39;16.60;99.90
71754;DHT22;59593;51.716;7.016;2022-11-11T11:37:11;16.90;99.90
71754;DHT22;59593;51.716;7.016;2022-11-11T11:39:38;16.90;99.90
71754;DHT22;59593;51.716;7.016;2022-11-11T11:42:05;17.00;99.90
71754;DHT22;59593;51.716;7.016;2022-11-11T11:44:36;17.10;99.90
71754;DHT22;59593;51.716;7.016;2022-11-11T11:47:30;17.40;99.90
71754;DHT22;59593;51.716;7.016;2022-11-11T11:56:00;17.50;99.90
71754;DHT22;59593;51.716;7.016;2022-11-11T11:58:57;17.30;99.90
71754;DHT22;59593;51.716;7.016;2022-11-11T12:06:52;17.00;99.90
71754;DHT22;59593;51.716;7.016;2022-11-11T12:18:34;18.40;99.90
71754;DHT22;59593;51.716;7.016;2022-11-11T12:21:16;18.10;99.90
71754;DHT22;59593;51.716;7.016;2022-11-11T12:23:55;17.30;99.90
71754;DHT22;59593;51.716;7.016;2022-11-11T12:26:38;16.50;99.90
71754;DHT22;59593;51.716;7.016;2022-11-11T12:32:21;16.40;99.90
71754;DHT22;59593;51.716;7.016;2022-11-11T12:37:54;17.00;99.90
71754;DHT22;59593;51.716;7.016;2022-11-11T12:43:20;17.00;99.90
71754;DHT22;59593;51.716;7.016;2022-11-11T12:46:20;16.90;99.90
71754;DHT22;59593;51.716;7.016;2022-11-11T12:59:53;17.90;99.90
71754;DHT22;59593;51.716;7.016;2022-11-11T13:05:26;18.20;99.90
71754;DHT22;59593;51.716;7.016;2022-11-11T13:15:58;19.80;99.90
71754;DHT22;59593;51.716;7.016;2022-11-11T13:18:59;20.40;99.90
71754;DHT22;59593;51.716;7.016;2022-11-11T13:21:47;20.40;99.90
71754;DHT22;59593;51.716;7.016;2022-11-11T13:24:17;20.10;99.90
71754;DHT22;59593;51.716;7.016;2022-11-11T13:27:05;19.30;99.90
71754;DHT22;59593;51.716;7.016;2022-11-11T13:32:19;19.60;99.90
71754;DHT22;59593;51.716;7.016;2022-11-11T13:34:48;19.00;99.90
71754;DHT22;59593;51.716;7.016;2022-11-11T13:37:27;19.30;99.90
71754;DHT22;59593;51.716;7.016;2022-11-11T13:40:02;18.90;99.90
71754;DHT22;59593;51.716;7.016;2022-11-11T13:42:39;19.20;99.90
71754;DHT22;59593;51.716;7.016;2022-11-11T13:45:12;19.60;99.90
71754;DHT22;59593;51.716;7.016;2022-11-11T13:47:45;20.00;99.90
71754;DHT22;59593;51.716;7.016;2022-11-11T13:50:22;20.00;99.90
71754;DHT22;59593;51.716;7.016;2022-11-11T13:55:47;19.50;99.90
71754;DHT22;59593;51.716;7.016;2022-11-11T13:58:36;19.50;99.90
71754;DHT22;59593;51.716;7.016;2022-11-11T14:01:05;19.20;99.90
71754;DHT22;59593;51.716;7.016;2022-11-11T14:03:34;19.40;99.90
71754;DHT22;59593;51.716;7.016;2022-11-11T14:11:33;18.00;99.90
71754;DHT22;59593;51.716;7.016;2022-11-11T14:17:04;17.20;99.90
71754;DHT22;59593;51.716;7.016;2022-11-11T14:19:30;17.30;99.90
71754;DHT22;59593;51.716;7.016;2022-11-11T14:21:58;17.30;99.90
71754;DHT22;59593;51.716;7.016;2022-11-11T14:24:36;17.10;99.90
71754;DHT22;59593;51.716;7.016;2022-11-11T14:27:13;16.70;99.90
71754;DHT22;59593;51.716;7.016;2022-11-11T14:29:54;16.50;99.90
71754;DHT22;59593;51.716;7.016;2022-11-11T14:32:46;16.10;99.90
71754;DHT22;59593;51.716;7.016;2022-11-11T14:40:41;15.40;99.90
71754;DHT22;59593;51.716;7.016;2022-11-11T14:43:38;15.10;99.90
71754;DHT22;59593;51.716;7.016;2022-11-11T14:46:09;14.90;99.90
71754;DHT22;59593;51.716;7.016;2022-11-11T14:48:48;14.90;99.90
71754;DHT22;59593;51.716;7.016;2022-11-11T14:51:35;14.80;99.90
71754;DHT22;59593;51.716;7.016;2022-11-11T14:54:03;14.70;99.90
71754;DHT22;59593;51.716;7.016;2022-11-11T14:56:31;14.60;99.90
71754;DHT22;59593;51.716;7.016;2022-11-11T14:59:04;14.50;99.90
71754;DHT22;59593;51.716;7.016;2022-11-11T15:01:30;14.40;99.90
71754;DHT22;59593;51.716;7.016;2022-11-11T15:04:01;14.40;99.90
71754;DHT22;59593;51.716;7.016;2022-11-11T15:07:00;14.30;99.90
71754;DHT22;59593;51.716;7.016;2022-11-11T15:09:51;14.20;99.90
71754;DHT22;59593;51.716;7.016;2022-11-11T15:20:58;13.90;99.90
71754;DHT22;59593;51.716;7.016;2022-11-11T15:23:37;13.80;99.90
71754;DHT22;59593;51.716;7.016;2022-11-11T15:31:30;13.20;99.90
71754;DHT22;59593;51.716;7.016;2022-11-11T15:39:17;12.40;99.90
71754;DHT22;59593;51.716;7.016;2022-11-11T15:41:47;12.20;99.90
71754;DHT22;59593;51.716;7.016;2022-11-11T15:44:23;12.00;99.90
71754;DHT22;59593;51.716;7.016;2022-11-11T15:46:50;11.80;99.90
71754;DHT22;59593;51.716;7.016;2022-11-11T15:49:43;11.70;99.90
71754;DHT22;59593;51.716;7.016;2022-11-11T15:52:33;11.50;99.90
71754;DHT22;59593;51.716;7.016;2022-11-11T15:55:08;11.30;99.90
71754;DHT22;59593;51.716;7.016;2022-11-11T15:57:34;11.20;99.90
71754;DHT22;59593;51.716;7.016;2022-11-11T16:00:02;11.00;99.90
71754;DHT22;59593;51.716;7.016;2022-11-11T16:02:33;11.00;99.90
71754;DHT22;59593;51.716;7.016;2022-11-11T16:05:09;10.90;99.90
71754;DHT22;59593;51.716;7.016;2022-11-11T16:07:43;10.80;99.90
71754;DHT22;59593;51.716;7.016;2022-11-11T16:10:14;10.70;99.90
71754;DHT22;59593;51.716;7.016;2022-11-11T16:13:11;10.60;99.90
71754;DHT22;59593;51.716;7.016;2022-11-11T16:18:25;10.40;99.90
71754;DHT22;59593;51.716;7.016;2022-11-11T16:21:10;10.40;99.90
71754;DHT22;59593;51.716;7.016;2022-11-11T16:23:37;10.20;99.90
71754;DHT22;59593;51.716;7.016;2022-11-11T16:26:03;10.20;99.90
71754;DHT22;59593;51.716;7.016;2022-11-11T16:28:41;10.20;99.90
71754;DHT22;59593;51.716;7.016;2022-11-11T16:33:50;10.00;99.90
71754;DHT22;59593;51.716;7.016;2022-11-11T16:36:16;9.90;99.90
71754;DHT22;59593;51.716;7.016;2022-11-11T16:38:42;10.00;99.90
71754;DHT22;59593;51.716;7.016;2022-11-11T16:41:27;10.00;99.90
71754;DHT22;59593;51.716;7.016;2022-11-11T16:43:55;9.80;99.90
71754;DHT22;59593;51.716;7.016;2022-11-11T16:49:20;9.60;99.90
71754;DHT22;59593;51.716;7.016;2022-11-11T16:51:48;9.60;99.90
71754;DHT22;59593;51.716;7.016;2022-11-11T16:54:17;9.50;99.90
71754;DHT22;59593;51.716;7.016;2022-11-11T16:56:47;9.40;99.90
71754;DHT22;59593;51.716;7.016;2022-11-11T16:59:42;9.40;99.90
71754;DHT22;59593;51.716;7.016;2022-11-11T17:02:20;9.30;99.90
71754;DHT22;59593;51.716;7.016;2022-11-11T17:04:52;9.40;99.90
71754;DHT22;59593;51.716;7.016;2022-11-11T17:07:38;9.30;99.90
71754;DHT22;59593;51.716;7.016;2022-11-11T17:12:37;9.20;99.90
71754;DHT22;59593;51.716;7.016;2022-11-11T17:15:08;9.10;99.90
71754;DHT22;59593;51.716;7.016;2022-11-11T17:17:34;9.10;99.90
71754;DHT22;59593;51.716;7.016;2022-11-11T17:22:34;9.00;99.90
71754;DHT22;59593;51.716;7.016;2022-11-11T17:25:18;8.90;99.90
71754;DHT22;59593;51.716;7.016;2022-11-11T17:27:44;8.80;99.90
71754;DHT22;59593;51.716;7.016;2022-11-11T17:30:11;8.80;99.90
71754;DHT22;59593;51.716;7.016;2022-11-11T17:32:37;8.70;99.90
71754;DHT22;59593;51.716;7.016;2022-11-11T17:35:03;8.70;99.90
71754;DHT22;59593;51.716;7.016;2022-11-11T17:37:32;8.60;99.90
71754;DHT22;59593;51.716;7.016;2022-11-11T17:39:58;8.60;99.90
71754;DHT22;59593;51.716;7.016;2022-11-11T17:42:23;8.60;99.90
71754;DHT22;59593;51.716;7.016;2022-11-11T17:44:49;8.50;99.90
71754;DHT22;59593;51.716;7.016;2022-11-11T17:47:15;8.50;99.90
71754;DHT22;59593;51.716;7.016;2022-11-11T17:49:40;8.40;99.90
71754;DHT22;59593;51.716;7.016;2022-11-11T17:52:06;8.40;99.90
71754;DHT22;59593;51.716;7.016;2022-11-11T17:54:31;8.30;99.90
71754;DHT22;59593;51.716;7.016;2022-11-11T17:56:57;8.30;99.90
71754;DHT22;59593;51.716;7.016;2022-11-11T17:59:22;8.20;99.90
71754;DHT22;59593;51.716;7.016;2022-11-11T18:01:50;8.20;99.90
71754;DHT22;59593;51.716;7.016;2022-11-11T18:04:15;8.20;99.90
71754;DHT22;59593;51.716;7.016;2022-11-11T18:06:41;8.10;99.90
71754;DHT22;59593;51.716;7.016;2022-11-11T18:09:06;8.10;99.90
71754;DHT22;59593;51.716;7.016;2022-11-11T18:11:34;8.00;99.90
71754;DHT22;59593;51.716;7.016;2022-11-11T18:14:00;8.10;99.90
71754;DHT22;59593;51.716;7.016;2022-11-11T18:16:25;8.10;99.90
71754;DHT22;59593;51.716;7.016;2022-11-11T18:18:52;8.10;99.90
71754;DHT22;59593;51.716;7.016;2022-11-11T18:21:18;8.10;99.90